createdAt,value
2022-10-05T00:02:21.137Z,100405.53
2022-10-05T00:04:49.415Z,100408.69
2022-10-05T00:07:18.538Z,100415.38
2022-10-05T00:09:47.832Z,100407.69
2022-10-05T00:12:26.684Z,100409.41
2022-10-05T00:14:59.217Z,100404.41
2022-10-05T00:17:29.151Z,100402.94
2022-10-05T00:19:55.872Z,100407.69
2022-10-05T00:22:33.691Z,100410.94
2022-10-05T00:25:02.324Z,100405.63
2022-10-05T00:27:36.106Z,100405.91
2022-10-05T00:30:13.215Z,100401.34
2022-10-05T00:32:39.718Z,100389.19
2022-10-05T00:35:06.667Z,100378.22
2022-10-05T00:37:39.647Z,100384.44
2022-10-05T00:40:11.739Z,100387.03
2022-10-05T00:43:12.855Z,100388.34
2022-10-05T00:45:49.992Z,100387.22
2022-10-05T00:48:38.735Z,100388.50
2022-10-05T00:51:26.681Z,100383.59
2022-10-05T00:54:15.869Z,100373.88
2022-10-05T00:57:06.035Z,100370.41
2022-10-05T00:59:48.571Z,100343.66
2022-10-05T01:02:47.142Z,100362.59
2022-10-05T01:05:56.530Z,100367.16
2022-10-05T01:08:48.159Z,100364.84
2022-10-05T01:11:32.638Z,100351.75
2022-10-05T01:14:01.936Z,100364.19
2022-10-05T01:16:31.426Z,100361.63
2022-10-05T01:19:12.715Z,100365.00
2022-10-05T01:21:49.895Z,100362.13
2022-10-05T01:24:31.518Z,100346.63
2022-10-05T01:27:30.876Z,100342.44
2022-10-05T01:30:10.010Z,100344.41
2022-10-05T01:33:08.896Z,100339.34
2022-10-05T01:36:13.610Z,100334.81
2022-10-05T01:39:10.628Z,100313.81
2022-10-05T01:41:52.091Z,100328.97
2022-10-05T01:44:32.897Z,100327.69
2022-10-05T01:47:12.688Z,100331.19
2022-10-05T01:50:00.626Z,100330.44
2022-10-05T01:52:48.699Z,100322.38
2022-10-05T01:55:18.794Z,100315.81
2022-10-05T01:58:00.612Z,100315.88
2022-10-05T02:00:29.687Z,100319.78
2022-10-05T02:02:59.545Z,100314.78
2022-10-05T02:05:43.564Z,100300.81
2022-10-05T02:08:17.642Z,100305.72
2022-10-05T02:10:53.415Z,100307.59
2022-10-05T02:13:26.800Z,100305.94
2022-10-05T02:16:00.224Z,100306.94
2022-10-05T02:18:52.160Z,100307.88
2022-10-05T02:21:20.577Z,100305.66
2022-10-05T02:23:56.680Z,100311.50
2022-10-05T02:26:25.404Z,100303.16
2022-10-05T02:29:02.307Z,100306.38
2022-10-05T02:32:06.746Z,100307.88
2022-10-05T02:34:39.216Z,100305.72
2022-10-05T02:37:43.391Z,100299.78
2022-10-05T02:40:34.923Z,100281.69
2022-10-05T02:43:04.296Z,100303.25
2022-10-05T02:45:52.448Z,100293.28
2022-10-05T02:48:34.144Z,100288.38
2022-10-05T02:51:06.238Z,100282.44
2022-10-05T02:53:47.860Z,100281.13
2022-10-05T02:56:34.566Z,100279.66
2022-10-05T02:59:11.083Z,100270.91
2022-10-05T03:01:42.412Z,100256.78
2022-10-05T03:04:38.310Z,100264.75
2022-10-05T03:07:32.360Z,100252.47
2022-10-05T03:10:09.958Z,100241.06
2022-10-05T03:13:07.489Z,100242.34
2022-10-05T03:15:43.133Z,100247.25
2022-10-05T03:18:31.083Z,100253.13
2022-10-05T03:21:13.501Z,100255.81
2022-10-05T03:23:58.293Z,100249.94
2022-10-05T03:26:48.746Z,100238.66
2022-10-05T03:29:24.419Z,100247.31
2022-10-05T03:32:17.754Z,100251.09
2022-10-05T03:35:05.965Z,100244.81
2022-10-05T03:37:56.064Z,100240.69
2022-10-05T03:40:31.293Z,100242.75
2022-10-05T03:43:03.595Z,100240.69
2022-10-05T03:45:38.770Z,100240.16
2022-10-05T03:48:47.003Z,100237.81
2022-10-05T03:51:24.269Z,100232.78
2022-10-05T03:53:59.856Z,100228.44
2022-10-05T03:56:37.885Z,100233.44
2022-10-05T03:59:18.498Z,100230.28
2022-10-05T04:01:56.512Z,100227.81
2022-10-05T04:04:35.020Z,100223.69
2022-10-05T04:07:02.209Z,100216.13
2022-10-05T04:09:42.941Z,100223.69
2022-10-05T04:12:21.789Z,100223.69
2022-10-05T04:14:54.520Z,100220.56
2022-10-05T04:17:34.215Z,100209.00
2022-10-05T04:20:06.201Z,100205.41
2022-10-05T04:22:41.676Z,100198.81
2022-10-05T04:25:16.872Z,100203.81
2022-10-05T04:28:31.169Z,100206.13
2022-10-05T04:31:00.461Z,100209.59
2022-10-05T04:33:27.371Z,100212.41
2022-10-05T04:36:22.076Z,100208.19
2022-10-05T04:38:51.147Z,100201.50
2022-10-05T04:41:36.319Z,100189.69
2022-10-05T04:44:16.433Z,100188.03
2022-10-05T04:46:50.951Z,100174.56
2022-10-05T04:49:25.063Z,100184.63
2022-10-05T04:52:00.504Z,100183.47
2022-10-05T04:54:45.680Z,100169.81
2022-10-05T04:57:30.368Z,100175.56
2022-10-05T05:00:05.674Z,100169.47
2022-10-05T05:02:45.901Z,100170.19
2022-10-05T05:06:12.093Z,100169.81
2022-10-05T05:08:47.099Z,100169.16
2022-10-05T05:11:34.500Z,100157.75
2022-10-05T05:14:12.835Z,100163.13
2022-10-05T05:16:42.463Z,100155.63
2022-10-05T05:19:14.623Z,100162.31
2022-10-05T05:21:57.489Z,100160.22
2022-10-05T05:24:38.511Z,100164.38
2022-10-05T05:27:23.172Z,100160.88
2022-10-05T05:30:04.290Z,100155.06
2022-10-05T05:32:46.698Z,100146.16
2022-10-05T05:35:16.064Z,100156.00
2022-10-05T05:38:03.653Z,100163.13
2022-10-05T05:40:55.952Z,100164.78
2022-10-05T05:43:34.562Z,100162.69
2022-10-05T05:46:11.886Z,100165.38
2022-10-05T05:48:41.746Z,100160.38
2022-10-05T05:51:20.931Z,100163.97
2022-10-05T05:53:59.209Z,100152.38
2022-10-05T05:56:40.097Z,100163.97
2022-10-05T05:59:19.994Z,100152.53
2022-10-05T06:01:56.200Z,100147.16
2022-10-05T06:04:27.685Z,100146.09
2022-10-05T06:06:57.937Z,100138.63
2022-10-05T06:09:37.948Z,100138.69
2022-10-05T06:12:16.547Z,100143.44
2022-10-05T06:14:42.867Z,100148.16
2022-10-05T06:17:22.442Z,100139.72
2022-10-05T06:19:53.623Z,100144.41
2022-10-05T06:22:34.954Z,100140.53
2022-10-05T06:25:13.299Z,100135.97
2022-10-05T06:28:02.953Z,100127.47
2022-10-05T06:31:00.339Z,100137.84
2022-10-05T06:33:29.654Z,100137.78
2022-10-05T06:36:12.819Z,100136.56
2022-10-05T06:39:09.386Z,100137.84
2022-10-05T06:41:38.863Z,100137.78
2022-10-05T06:44:14.257Z,100142.81
2022-10-05T06:46:51.080Z,100141.31
2022-10-05T06:49:29.320Z,100145.28
2022-10-05T06:52:10.749Z,100150.84
2022-10-05T06:54:57.260Z,100156.06
2022-10-05T06:57:36.565Z,100158.13
2022-10-05T07:00:17.364Z,100160.16
2022-10-05T07:02:57.555Z,100157.75
2022-10-05T07:05:47.904Z,100149.84
2022-10-05T07:08:36.644Z,100157.28
2022-10-05T07:11:40.431Z,100159.63
2022-10-05T07:14:16.075Z,100152.22
2022-10-05T07:16:51.061Z,100160.38
2022-10-05T07:19:52.475Z,100160.81
2022-10-05T07:22:33.354Z,100161.84
2022-10-05T07:25:23.835Z,100154.25
2022-10-05T07:28:00.321Z,100153.13
2022-10-05T07:30:26.839Z,100152.41
2022-10-05T07:33:10.406Z,100135.69
2022-10-05T07:36:23.879Z,100140.31
2022-10-05T07:38:56.248Z,100136.50
2022-10-05T07:41:28.059Z,100112.16
2022-10-05T07:44:16.181Z,100124.91
2022-10-05T07:46:56.742Z,100126.84
2022-10-05T07:49:44.978Z,100115.88
2022-10-05T07:52:16.976Z,100120.56
2022-10-05T07:54:53.823Z,100113.38
2022-10-05T07:57:43.652Z,100099.25
2022-10-05T08:00:16.267Z,100112.09
2022-10-05T08:02:59.865Z,100109.63
2022-10-05T08:05:30.788Z,100104.19
2022-10-05T08:08:14.313Z,100106.94
2022-10-05T08:10:52.397Z,100112.72
2022-10-05T08:13:29.123Z,100102.97
2022-10-05T08:16:00.686Z,100112.47
2022-10-05T08:18:40.175Z,100117.91
2022-10-05T08:21:11.989Z,100112.66
2022-10-05T08:24:05.452Z,100107.16
2022-10-05T08:26:31.787Z,100104.72
2022-10-05T08:29:14.002Z,100103.59
2022-10-05T08:31:45.113Z,100098.78
2022-10-05T08:34:11.732Z,100095.66
2022-10-05T08:36:57.162Z,100105.72
2022-10-05T08:39:29.007Z,100104.41
2022-10-05T08:42:05.075Z,100103.72
2022-10-05T08:44:50.182Z,100109.13
2022-10-05T08:47:44.367Z,100110.44
2022-10-05T08:50:33.259Z,100114.19
2022-10-05T08:53:38.113Z,100128.69
2022-10-05T08:56:29.135Z,100132.88
2022-10-05T08:59:07.490Z,100115.22
2022-10-05T09:02:11.512Z,100118.56
2022-10-05T09:05:03.428Z,100100.91
2022-10-05T09:07:41.970Z,100109.56
2022-10-05T09:10:27.173Z,100103.91
2022-10-05T09:13:06.506Z,100091.16
2022-10-05T09:16:00.250Z,100104.22
2022-10-05T09:19:04.618Z,100113.38
2022-10-05T09:21:57.249Z,100097.19
2022-10-05T09:24:51.743Z,100102.59
2022-10-05T09:27:24.647Z,100098.91
2022-10-05T09:30:26.993Z,100089.13
2022-10-05T09:33:15.046Z,100101.75
2022-10-05T09:35:53.423Z,100096.97
2022-10-05T09:38:46.370Z,100088.47
2022-10-05T09:41:38.286Z,100083.72
2022-10-05T09:44:53.051Z,100080.00
2022-10-05T09:47:52.644Z,100087.66
2022-10-05T09:50:50.847Z,100088.06
2022-10-05T09:53:32.178Z,100081.84
2022-10-05T09:56:21.137Z,100077.28
2022-10-05T09:58:59.941Z,100091.81
2022-10-05T10:01:33.704Z,100081.31
2022-10-05T10:04:26.472Z,100089.56
2022-10-05T10:07:06.917Z,100079.81
2022-10-05T10:10:13.783Z,100078.78
2022-10-05T10:13:10.846Z,100067.16
2022-10-05T10:16:08.620Z,100059.06
2022-10-05T10:19:16.455Z,100061.13
2022-10-05T10:22:05.313Z,100061.13
2022-10-05T10:24:55.919Z,100062.63
2022-10-05T10:27:22.228Z,100065.00
2022-10-05T10:30:07.195Z,100062.13
2022-10-05T10:33:11.250Z,100057.25
2022-10-05T10:36:19.286Z,100059.28
2022-10-05T10:38:54.256Z,100062.34
2022-10-05T10:41:27.734Z,100058.59
2022-10-05T10:44:15.928Z,100056.19
2022-10-05T10:47:05.132Z,100061.59
2022-10-05T10:49:46.738Z,100067.56
2022-10-05T10:52:42.048Z,100053.69
2022-10-05T10:55:30.774Z,100057.84
2022-10-05T10:58:37.467Z,100057.03
2022-10-05T11:01:40.560Z,100059.06
2022-10-05T11:04:29.940Z,100069.44
2022-10-05T11:07:17.821Z,100071.25
2022-10-05T11:10:22.466Z,100062.41
2022-10-05T11:13:19.994Z,100050.94
2022-10-05T11:15:55.659Z,100064.03
2022-10-05T11:18:43.888Z,100062.41
2022-10-05T11:21:36.401Z,100052.47
2022-10-05T11:24:24.596Z,100057.78
2022-10-05T11:27:16.184Z,100047.28
2022-10-05T11:30:25.539Z,100051.63
2022-10-05T11:33:18.312Z,100042.91
2022-10-05T11:36:15.855Z,100051.63
2022-10-05T11:38:54.134Z,100053.69
2022-10-05T11:41:41.295Z,100049.47
2022-10-05T11:44:28.364Z,100043.75
2022-10-05T11:47:11.974Z,100047.03
2022-10-05T11:50:09.518Z,100040.03
2022-10-05T11:52:44.879Z,100026.50
2022-10-05T11:55:26.352Z,100027.59
2022-10-05T11:58:04.162Z,100026.75
2022-10-05T12:00:44.291Z,100022.22
2022-10-05T12:03:27.441Z,100025.91
2022-10-05T12:06:05.714Z,100017.16
2022-10-05T12:09:04.416Z,100028.22
2022-10-05T12:11:50.867Z,100015.78
2022-10-05T12:14:50.214Z,100018.47
2022-10-05T12:17:19.638Z,100020.09
2022-10-05T12:19:55.336Z,100025.47
2022-10-05T12:22:31.985Z,100014.31
2022-10-05T12:25:04.518Z,100009.13
2022-10-05T12:27:45.675Z,100011.81
2022-10-05T12:30:27.457Z,100014.31
2022-10-05T12:33:16.946Z,100016.38
2022-10-05T12:35:55.669Z,100015.97
2022-10-05T12:38:30.909Z,100011.75
2022-10-05T12:41:04.250Z,100002.50
2022-10-05T12:43:41.819Z,100006.22
2022-10-05T12:46:33.211Z,100012.91
2022-10-05T12:49:17.716Z,100006.88
2022-10-05T12:51:59.576Z,100008.94
2022-10-05T12:54:33.976Z,100011.63
2022-10-05T12:57:34.431Z,100008.53
2022-10-05T13:00:17.764Z,100008.75
2022-10-05T13:02:50.847Z,100008.06
2022-10-05T13:05:27.217Z,100009.06
2022-10-05T13:08:17.717Z,99998.97
2022-10-05T13:11:30.724Z,100007.50
2022-10-05T13:14:12.433Z,99994.63
2022-10-05T13:17:08.592Z,99988.84
2022-10-05T13:19:42.291Z,100001.22
2022-10-05T13:22:16.940Z,99982.13
2022-10-05T13:24:52.778Z,99988.19
2022-10-05T13:27:27.862Z,99982.00
2022-10-05T13:30:05.003Z,99984.50
2022-10-05T13:32:39.778Z,99983.00
2022-10-05T13:35:22.299Z,99971.84
2022-10-05T13:37:55.072Z,99965.81
2022-10-05T13:40:46.594Z,99963.75
2022-10-05T13:43:40.133Z,99947.59
2022-10-05T13:46:19.154Z,99954.59
2022-10-05T13:48:54.587Z,99944.28
2022-10-05T13:51:29.424Z,99952.53
2022-10-05T13:54:20.314Z,99939.53
2022-10-05T13:56:54.424Z,99943.63
2022-10-05T13:59:38.222Z,99956.28
2022-10-05T14:02:20.790Z,99956.69
2022-10-05T14:05:21.868Z,99943.84
2022-10-05T14:07:57.326Z,99946.34
2022-10-05T14:10:38.984Z,99935.16
2022-10-05T14:13:22.530Z,99926.03
2022-10-05T14:16:04.502Z,99929.75
2022-10-05T14:18:33.943Z,99927.63
2022-10-05T14:21:17.009Z,99941.38
2022-10-05T14:23:43.915Z,99937.56
2022-10-05T14:26:31.593Z,99948.63
2022-10-05T14:29:17.035Z,99935.16
2022-10-05T14:31:54.541Z,99927.47
2022-10-05T14:34:41.921Z,99921.69
2022-10-05T14:37:18.858Z,99908.41
2022-10-05T14:39:48.251Z,99915.84
2022-10-05T14:42:18.166Z,99894.28
2022-10-05T14:44:45.895Z,99885.72
2022-10-05T14:47:20.183Z,99898.44
2022-10-05T14:50:15.952Z,99910.25
2022-10-05T14:53:09.904Z,99903.84
2022-10-05T14:55:55.753Z,99923.53
2022-10-05T14:58:41.413Z,99912.75
2022-10-05T15:01:24.101Z,99887.97
2022-10-05T15:04:21.637Z,99906.56
2022-10-05T15:07:30.690Z,99902.81
2022-10-05T15:10:12.352Z,99900.03
2022-10-05T15:12:43.895Z,99895.94
2022-10-05T15:15:34.441Z,99885.81
2022-10-05T15:18:05.763Z,99891.59
2022-10-05T15:20:47.720Z,99877.94
2022-10-05T15:23:27.103Z,99866.75
2022-10-05T15:26:40.880Z,99875.06
2022-10-05T15:29:19.185Z,99887.47
2022-10-05T15:32:14.461Z,99887.88
2022-10-05T15:34:50.694Z,99893.47
2022-10-05T15:37:33.649Z,99878.78
2022-10-05T15:40:04.393Z,99880.59
2022-10-05T15:42:38.268Z,99872.78
2022-10-05T15:45:39.352Z,99886.66
2022-10-05T15:48:20.218Z,99871.72
2022-10-05T15:50:56.935Z,99871.91
2022-10-05T15:53:34.723Z,99883.53
2022-10-05T15:56:07.180Z,99877.28
2022-10-05T15:58:44.467Z,99882.50
2022-10-05T16:01:16.205Z,99879.38
2022-10-05T16:03:55.657Z,99887.69
2022-10-05T16:07:03.630Z,99871.31
2022-10-05T16:09:41.109Z,99876.91
2022-10-05T16:12:26.524Z,99877.34
2022-10-05T16:15:17.688Z,99857.66
2022-10-05T16:18:13.269Z,99865.72
2022-10-05T16:20:46.262Z,99868.19
2022-10-05T16:23:22.684Z,99875.69
2022-10-05T16:26:14.595Z,99873.19
2022-10-05T16:28:59.464Z,99873.38
2022-10-05T16:31:25.847Z,99863.63
2022-10-05T16:34:17.822Z,99860.13
2022-10-05T16:36:52.246Z,99870.47
2022-10-05T16:39:40.339Z,99873.41
2022-10-05T16:42:34.781Z,99864.09
2022-10-05T16:45:23.379Z,99863.84
2022-10-05T16:48:01.762Z,99865.09
2022-10-05T16:50:55.650Z,99860.34
2022-10-05T16:53:28.961Z,99856.38
2022-10-05T16:56:03.172Z,99854.31
2022-10-05T16:58:57.111Z,99853.94
2022-10-05T17:01:45.024Z,99851.25
2022-10-05T17:04:24.824Z,99849.56
2022-10-05T17:07:26.482Z,99854.75
2022-10-05T17:10:10.407Z,99852.06
2022-10-05T17:12:51.345Z,99850.59
2022-10-05T17:15:54.877Z,99854.75
2022-10-05T17:18:42.739Z,99859.28
2022-10-05T17:21:15.590Z,99851.22
2022-10-05T17:23:53.689Z,99847.28
2022-10-05T17:26:22.967Z,99857.44
2022-10-05T17:28:52.336Z,99860.94
2022-10-05T17:31:21.892Z,99858.44
2022-10-05T17:34:10.431Z,99852.88
2022-10-05T17:36:50.083Z,99852.06
2022-10-05T17:39:19.562Z,99847.66
2022-10-05T17:41:46.794Z,99855.75
2022-10-05T17:44:24.304Z,99853.69
2022-10-05T17:47:11.307Z,99844.44
2022-10-05T17:49:37.635Z,99841.25
2022-10-05T17:52:39.131Z,99842.72
2022-10-05T17:55:25.598Z,99836.97
2022-10-05T17:57:52.542Z,99831.94
2022-10-05T18:00:55.931Z,99834.88
2022-10-05T18:03:45.281Z,99820.81
2022-10-05T18:06:22.102Z,99823.28
2022-10-05T18:08:48.477Z,99814.13
2022-10-05T18:11:36.730Z,99819.75
2022-10-05T18:14:20.427Z,99816.88
2022-10-05T18:17:02.320Z,99815.41
2022-10-05T18:19:33.126Z,99810.59
2022-10-05T18:22:15.323Z,99810.03
2022-10-05T18:24:55.649Z,99813.75
2022-10-05T18:27:40.808Z,99821.16
2022-10-05T18:30:31.009Z,99810.41
2022-10-05T18:32:57.423Z,99796.91
2022-10-05T18:35:26.738Z,99807.50
2022-10-05T18:37:59.209Z,99791.53
2022-10-05T18:40:53.027Z,99806.28
2022-10-05T18:43:38.162Z,99798.78
2022-10-05T18:46:21.957Z,99792.59
2022-10-05T18:49:10.428Z,99795.94
2022-10-05T18:51:51.928Z,99788.66
2022-10-05T18:54:36.033Z,99791.16
2022-10-05T18:57:29.897Z,99792.81
2022-10-05T19:00:10.601Z,99787.63
2022-10-05T19:02:43.016Z,99779.75
2022-10-05T19:05:46.944Z,99777.28
2022-10-05T19:08:28.516Z,99764.63
2022-10-05T19:11:04.631Z,99768.34
2022-10-05T19:13:41.953Z,99770.63
2022-10-05T19:16:27.109Z,99776.44
2022-10-05T19:19:14.703Z,99790.75
2022-10-05T19:22:01.308Z,99776.66
2022-10-05T19:24:46.275Z,99782.22
2022-10-05T19:27:21.665Z,99783.91
2022-10-05T19:30:09.421Z,99777.06
2022-10-05T19:33:14.374Z,99778.09
2022-10-05T19:35:46.439Z,99768.13
2022-10-05T19:38:25.316Z,99758.84
2022-10-05T19:41:22.837Z,99777.28
2022-10-05T19:44:04.563Z,99768.97
2022-10-05T19:46:37.074Z,99763.59
2022-10-05T19:49:03.632Z,99751.13
2022-10-05T19:51:32.983Z,99754.03
2022-10-05T19:54:14.644Z,99745.97
2022-10-05T19:56:49.522Z,99747.00
2022-10-05T19:59:28.132Z,99754.28
2022-10-05T20:01:56.716Z,99747.81
2022-10-05T20:04:43.190Z,99742.88
2022-10-05T20:07:15.632Z,99738.94
2022-10-05T20:09:59.851Z,99737.69
2022-10-05T20:12:52.353Z,99738.31
2022-10-05T20:15:40.373Z,99740.78
2022-10-05T20:18:50.427Z,99738.50
2022-10-05T20:21:40.248Z,99736.84
2022-10-05T20:24:13.856Z,99737.28
2022-10-05T20:27:04.247Z,99727.53
2022-10-05T20:29:41.767Z,99734.16
2022-10-05T20:32:14.130Z,99722.75
2022-10-05T20:34:43.077Z,99730.63
2022-10-05T20:37:12.147Z,99717.16
2022-10-05T20:39:39.858Z,99731.66
2022-10-05T20:42:07.735Z,99726.06
2022-10-05T20:44:34.960Z,99736.84
2022-10-05T20:47:01.693Z,99737.66
2022-10-05T20:49:30.998Z,99742.03
2022-10-05T20:52:00.571Z,99741.44
2022-10-05T20:54:29.190Z,99744.09
2022-10-05T20:56:55.931Z,99747.44
2022-10-05T20:59:28.515Z,99743.69
2022-10-05T21:01:54.953Z,99737.03
2022-10-05T21:04:24.159Z,99736.66
2022-10-05T21:06:50.822Z,99745.75
2022-10-05T21:09:21.266Z,99753.00
2022-10-05T21:11:50.058Z,99776.84
2022-10-05T21:14:17.071Z,99774.38
2022-10-05T21:16:45.776Z,99775.19
2022-10-05T21:19:13.938Z,99790.72
2022-10-05T21:21:41.994Z,99785.53
2022-10-05T21:24:08.816Z,99780.59
2022-10-05T21:26:36.953Z,99788.66
2022-10-05T21:29:07.778Z,99794.69
2022-10-05T21:31:37.007Z,99802.97
2022-10-05T21:34:04.072Z,99805.03
2022-10-05T21:36:30.559Z,99812.28
2022-10-05T21:38:57.051Z,99830.72
2022-10-05T21:41:23.562Z,99839.03
2022-10-05T21:43:49.996Z,99848.97
2022-10-05T21:46:20.313Z,99853.56
2022-10-05T21:48:48.102Z,99861.22
2022-10-05T21:51:17.014Z,99863.06
2022-10-05T21:53:53.318Z,99891.72
2022-10-05T21:56:23.524Z,99891.69
2022-10-05T21:58:51.409Z,99891.88
2022-10-05T22:01:22.372Z,99891.06
2022-10-05T22:03:49.552Z,99893.56
2022-10-05T22:06:15.962Z,99900.78
2022-10-05T22:08:42.427Z,99905.34
2022-10-05T22:11:12.124Z,99899.53
2022-10-05T22:14:03.254Z,99918.47
2022-10-05T22:16:32.808Z,99924.84
2022-10-05T22:19:03.674Z,99924.44
2022-10-05T22:21:32.837Z,99925.03
2022-10-05T22:24:01.608Z,99931.47
2022-10-05T22:26:28.115Z,99943.91
2022-10-05T22:28:57.714Z,99945.56
2022-10-05T22:31:24.285Z,99953.84
2022-10-05T22:33:51.211Z,99954.91
2022-10-05T22:36:18.018Z,99955.03
2022-10-05T22:38:46.524Z,99985.16
2022-10-05T22:41:14.830Z,99993.25
2022-10-05T22:43:41.315Z,100001.53
2022-10-05T22:46:12.548Z,100015.22
2022-10-05T22:48:40.031Z,100018.50
2022-10-05T22:51:08.252Z,100024.94
2022-10-05T22:53:35.281Z,100033.84
2022-10-05T22:56:13.052Z,100043.25
2022-10-05T22:58:40.972Z,100050.03
2022-10-05T23:01:10.472Z,100044.44
2022-10-05T23:03:37.315Z,100060.81
2022-10-05T23:06:12.384Z,100057.75
2022-10-05T23:08:40.111Z,100066.19
2022-10-05T23:11:08.878Z,100063.50
2022-10-05T23:13:35.748Z,100073.44
2022-10-05T23:16:07.654Z,100064.56
2022-10-05T23:18:34.827Z,100067.22
2022-10-05T23:21:01.980Z,100072.81
2022-10-05T23:23:28.418Z,100069.06
2022-10-05T23:26:01.300Z,100078.66
2022-10-05T23:28:28.995Z,100079.84
2022-10-05T23:31:00.136Z,100081.97
2022-10-05T23:33:27.377Z,100083.38
2022-10-05T23:36:01.795Z,100078.25
2022-10-05T23:38:28.627Z,100082.53
2022-10-05T23:40:56.167Z,100084.59
2022-10-05T23:43:22.819Z,100086.06
2022-10-05T23:45:49.232Z,100086.06
2022-10-05T23:48:15.863Z,100084.22
2022-10-05T23:50:45.754Z,100077.78
2022-10-05T23:53:12.264Z,100079.84
2022-10-05T23:55:38.663Z,100091.47
2022-10-05T23:58:05.082Z,100102.22
